createdAt,value
2023-04-07T00:00:48.945Z,14.40
2023-04-07T00:03:23.796Z,14.65
2023-04-07T00:05:52.802Z,14.32
2023-04-07T00:08:22.079Z,15.05
2023-04-07T00:10:50.903Z,15.43
2023-04-07T00:13:19.901Z,15.27
2023-04-07T00:15:49.315Z,15.10
2023-04-07T00:18:18.382Z,14.20
2023-04-07T00:20:48.535Z,15.80
2023-04-07T00:23:17.538Z,15.15
2023-04-07T00:25:46.464Z,15.27
2023-04-07T00:28:15.661Z,15.02
2023-04-07T00:30:44.371Z,15.35
2023-04-07T00:33:13.526Z,15.18
2023-04-07T00:35:42.302Z,16.15
2023-04-07T00:38:13.205Z,14.63
2023-04-07T00:40:42.017Z,14.77
2023-04-07T00:43:11.296Z,15.10
2023-04-07T00:45:40.071Z,15.13
2023-04-07T00:48:09.270Z,15.57
2023-04-07T00:50:38.278Z,14.50
2023-04-07T00:53:08.153Z,14.88
2023-04-07T00:55:38.507Z,16.67
2023-04-07T00:58:07.584Z,15.77
2023-04-07T01:00:44.158Z,15.02
2023-04-07T01:03:21.904Z,14.77
2023-04-07T01:05:59.890Z,15.93
2023-04-07T01:08:43.790Z,19.02
2023-04-07T01:11:24.630Z,18.02
2023-04-07T01:13:56.588Z,19.08
2023-04-07T01:16:53.722Z,20.10
2023-04-07T01:19:37.981Z,17.35
2023-04-07T01:22:15.251Z,17.30
2023-04-07T01:25:18.463Z,17.05
2023-04-07T01:28:10.100Z,16.90
2023-04-07T01:30:44.394Z,16.17
2023-04-07T01:33:15.878Z,16.20
2023-04-07T01:35:48.226Z,15.98
2023-04-07T01:38:18.429Z,15.98
2023-04-07T01:40:50.802Z,15.65
2023-04-07T01:43:21.523Z,16.52
2023-04-07T01:45:52.717Z,16.50
2023-04-07T01:48:22.187Z,15.70
2023-04-07T01:50:52.895Z,16.52
2023-04-07T01:53:22.308Z,15.85
2023-04-07T01:55:53.687Z,15.40
2023-04-07T01:58:23.145Z,15.98
2023-04-07T02:00:53.920Z,16.88
2023-04-07T02:03:33.209Z,16.60
2023-04-07T02:06:09.180Z,18.00
2023-04-07T02:08:43.670Z,17.67
2023-04-07T02:11:14.456Z,16.88
2023-04-07T02:13:45.804Z,17.42
2023-04-07T02:16:18.952Z,16.92
2023-04-07T02:18:49.092Z,17.00
2023-04-07T02:21:20.253Z,17.13
2023-04-07T02:23:49.008Z,16.73
2023-04-07T02:26:18.154Z,17.35
2023-04-07T02:28:46.855Z,17.60
2023-04-07T02:31:17.290Z,17.73
2023-04-07T02:33:46.326Z,17.27
2023-04-07T02:36:15.410Z,18.05
2023-04-07T02:38:44.203Z,17.55
2023-04-07T02:41:13.239Z,18.67
2023-04-07T02:43:42.028Z,18.17
2023-04-07T02:46:11.959Z,19.35
2023-04-07T02:48:42.579Z,19.63
2023-04-07T02:51:12.300Z,19.98
2023-04-07T02:53:41.142Z,19.38
2023-04-07T02:56:10.338Z,18.65
2023-04-07T02:58:39.360Z,18.85
2023-04-07T03:01:08.638Z,19.58
2023-04-07T03:03:39.550Z,19.13
2023-04-07T03:06:23.578Z,19.25
2023-04-07T03:09:02.601Z,19.30
2023-04-07T03:11:31.727Z,18.98
2023-04-07T03:14:02.042Z,18.55
2023-04-07T03:16:33.765Z,19.13
2023-04-07T03:19:08.010Z,18.88
2023-04-07T03:21:42.836Z,19.65
2023-04-07T03:24:11.858Z,19.48
2023-04-07T03:26:41.157Z,18.75
2023-04-07T03:29:20.300Z,19.50
2023-04-07T03:31:49.625Z,19.15
2023-04-07T03:34:21.948Z,19.90
2023-04-07T03:36:52.733Z,19.63
2023-04-07T03:39:21.634Z,19.45
2023-04-07T03:41:52.825Z,19.15
2023-04-07T03:44:21.826Z,19.77
2023-04-07T03:46:51.247Z,19.52
2023-04-07T03:49:21.320Z,20.00
2023-04-07T03:51:53.637Z,18.92
2023-04-07T03:54:22.560Z,19.75
2023-04-07T03:56:51.752Z,20.17
2023-04-07T03:59:25.224Z,19.83
2023-04-07T04:02:04.386Z,19.17
2023-04-07T04:04:33.799Z,19.67
2023-04-07T04:07:04.874Z,19.85
2023-04-07T04:09:42.104Z,21.30
2023-04-07T04:12:11.415Z,20.10
2023-04-07T04:14:47.052Z,22.00
2023-04-07T04:17:17.442Z,20.63
2023-04-07T04:19:48.627Z,19.63
2023-04-07T04:22:30.312Z,20.58
2023-04-07T04:25:01.231Z,20.48
2023-04-07T04:27:30.673Z,20.30
2023-04-07T04:30:08.118Z,21.02
2023-04-07T04:32:46.776Z,20.70
2023-04-07T04:35:17.263Z,21.50
2023-04-07T04:37:58.397Z,20.63
2023-04-07T04:40:27.858Z,21.60
2023-04-07T04:42:57.002Z,19.73
2023-04-07T04:45:27.105Z,19.85
2023-04-07T04:47:56.642Z,19.90
2023-04-07T04:50:25.472Z,20.33
2023-04-07T04:52:55.391Z,20.50
2023-04-07T04:55:27.103Z,20.15
2023-04-07T04:57:56.992Z,21.02
2023-04-07T05:00:35.840Z,19.42
2023-04-07T05:03:08.847Z,20.02
2023-04-07T05:05:41.468Z,19.02
2023-04-07T05:08:12.623Z,19.33
2023-04-07T05:10:44.869Z,20.23
2023-04-07T05:13:16.654Z,19.38
2023-04-07T05:15:45.619Z,19.92
2023-04-07T05:18:16.144Z,19.02
2023-04-07T05:20:46.244Z,19.42
2023-04-07T05:23:15.338Z,19.88
2023-04-07T05:25:47.150Z,19.45
2023-04-07T05:28:16.238Z,20.60
2023-04-07T05:30:45.404Z,19.50
2023-04-07T05:33:14.607Z,20.13
2023-04-07T05:35:50.145Z,20.45
2023-04-07T05:38:19.307Z,19.77
2023-04-07T05:40:49.605Z,20.60
2023-04-07T05:43:29.035Z,20.63
2023-04-07T05:45:58.716Z,20.27
2023-04-07T05:48:27.852Z,20.20
2023-04-07T05:50:57.674Z,19.10
2023-04-07T05:53:27.332Z,18.88
2023-04-07T05:55:57.838Z,19.50
2023-04-07T05:58:41.179Z,18.90
2023-04-07T06:01:11.563Z,19.80
2023-04-07T06:03:41.377Z,19.98
2023-04-07T06:06:31.445Z,20.17
2023-04-07T06:09:00.891Z,20.33
2023-04-07T06:11:31.039Z,19.80
2023-04-07T06:14:01.180Z,18.80
2023-04-07T06:16:30.039Z,20.20
2023-04-07T06:19:00.218Z,20.42
2023-04-07T06:21:31.620Z,19.73
2023-04-07T06:24:00.743Z,19.50
2023-04-07T06:26:31.895Z,19.33
2023-04-07T06:29:01.724Z,19.42
2023-04-07T06:31:30.564Z,18.92
2023-04-07T06:33:59.617Z,20.15
2023-04-07T06:36:29.143Z,19.38
2023-04-07T06:38:58.310Z,19.98
2023-04-07T06:41:27.283Z,17.83
2023-04-07T06:43:57.763Z,18.52
2023-04-07T06:46:26.794Z,18.88
2023-04-07T06:48:56.072Z,18.42
2023-04-07T06:51:24.868Z,18.70
2023-04-07T06:53:53.810Z,19.05
2023-04-07T06:56:25.068Z,19.40
2023-04-07T06:58:54.349Z,18.98
2023-04-07T07:01:24.403Z,20.10
2023-04-07T07:03:53.826Z,19.73
2023-04-07T07:06:22.900Z,18.50
2023-04-07T07:08:52.100Z,18.67
2023-04-07T07:11:20.953Z,18.58
2023-04-07T07:13:50.307Z,18.33
2023-04-07T07:16:19.333Z,17.90
2023-04-07T07:18:49.832Z,18.42
2023-04-07T07:21:19.886Z,19.23
2023-04-07T07:23:49.428Z,18.63
2023-04-07T07:26:18.538Z,19.30
2023-04-07T07:28:47.987Z,19.55
2023-04-07T07:31:17.417Z,18.88
2023-04-07T07:33:48.793Z,18.63
2023-04-07T07:36:19.748Z,18.85
2023-04-07T07:38:51.549Z,18.52
2023-04-07T07:41:21.167Z,18.13
2023-04-07T07:43:50.677Z,18.05
2023-04-07T07:46:19.440Z,22.35
2023-04-07T07:48:48.471Z,19.83
2023-04-07T07:51:19.356Z,19.98
2023-04-07T07:53:48.532Z,18.50
2023-04-07T07:56:17.592Z,18.83
2023-04-07T07:58:46.723Z,19.75
2023-04-07T08:01:15.649Z,18.35
2023-04-07T08:03:45.903Z,18.77
2023-04-07T08:06:14.910Z,17.73
2023-04-07T08:08:45.335Z,19.02
2023-04-07T08:11:14.137Z,18.92
2023-04-07T08:13:45.602Z,18.70
2023-04-07T08:16:14.928Z,18.40
2023-04-07T08:18:43.964Z,18.15
2023-04-07T08:21:13.040Z,18.40
2023-04-07T08:23:42.085Z,17.52
2023-04-07T08:26:12.271Z,17.65
2023-04-07T08:28:41.363Z,17.00
2023-04-07T08:31:10.359Z,18.90
2023-04-07T08:33:39.575Z,18.05
2023-04-07T08:36:08.862Z,16.85
2023-04-07T08:38:38.082Z,17.70
2023-04-07T08:41:13.912Z,16.92
2023-04-07T08:43:47.355Z,17.75
2023-04-07T08:46:19.089Z,16.40
2023-04-07T08:48:53.694Z,17.02
2023-04-07T08:51:31.779Z,16.35
2023-04-07T08:54:10.061Z,16.33
2023-04-07T08:56:41.885Z,16.52
2023-04-07T08:59:15.503Z,16.23
2023-04-07T09:01:44.652Z,16.65
2023-04-07T09:04:14.790Z,15.38
2023-04-07T09:06:44.577Z,16.10
2023-04-07T09:09:15.329Z,16.27
2023-04-07T09:11:45.860Z,16.08
2023-04-07T09:14:15.573Z,16.50
2023-04-07T09:16:44.502Z,16.08
2023-04-07T09:19:13.647Z,15.05
2023-04-07T09:21:53.601Z,14.90
2023-04-07T09:24:25.744Z,16.23
2023-04-07T09:27:12.377Z,16.70
2023-04-07T09:29:44.199Z,14.82
2023-04-07T09:32:13.984Z,15.10
2023-04-07T09:34:43.290Z,14.10
2023-04-07T09:37:24.039Z,15.18
2023-04-07T09:39:54.649Z,14.85
2023-04-07T09:42:26.716Z,14.70
2023-04-07T09:44:56.033Z,15.48
2023-04-07T09:47:29.585Z,14.90
2023-04-07T09:50:01.993Z,15.10
2023-04-07T09:52:53.434Z,15.85
2023-04-07T09:55:24.347Z,15.13
2023-04-07T09:57:56.505Z,15.07
2023-04-07T10:00:26.708Z,14.90
2023-04-07T10:02:56.442Z,14.95
2023-04-07T10:05:26.494Z,14.90
2023-04-07T10:07:55.918Z,14.98
2023-04-07T10:10:27.237Z,15.10
2023-04-07T10:12:59.135Z,14.15
2023-04-07T10:15:28.558Z,15.38
2023-04-07T10:17:58.217Z,14.88
2023-04-07T10:20:29.529Z,14.93
2023-04-07T10:23:10.922Z,14.02
2023-04-07T10:25:42.532Z,14.25
2023-04-07T10:28:15.601Z,15.20
2023-04-07T10:30:45.648Z,16.20
2023-04-07T10:33:14.483Z,14.80
2023-04-07T10:36:07.104Z,14.95
2023-04-07T10:38:36.386Z,14.43
2023-04-07T10:41:41.921Z,14.52
2023-04-07T10:44:53.081Z,13.93
2023-04-07T10:47:22.243Z,14.30
2023-04-07T10:50:21.263Z,14.60
2023-04-07T10:53:05.590Z,14.27
2023-04-07T10:55:38.027Z,14.55
2023-04-07T10:58:18.581Z,13.55
2023-04-07T11:01:22.105Z,13.95
2023-04-07T11:03:58.876Z,15.25
2023-04-07T11:06:28.142Z,13.93
2023-04-07T11:08:57.454Z,13.35
2023-04-07T11:11:41.771Z,14.13
2023-04-07T11:14:10.952Z,13.18
2023-04-07T11:16:45.540Z,12.55
2023-04-07T11:19:14.670Z,12.60
2023-04-07T11:21:43.398Z,13.15
2023-04-07T11:24:12.591Z,14.13
2023-04-07T11:26:43.781Z,11.52
2023-04-07T11:29:13.555Z,12.73
2023-04-07T11:31:49.506Z,13.00
2023-04-07T11:34:18.664Z,12.48
2023-04-07T11:36:47.447Z,11.52
2023-04-07T11:39:22.018Z,11.63
2023-04-07T11:41:52.124Z,11.40
2023-04-07T11:44:21.427Z,11.43
2023-04-07T11:46:59.675Z,12.35
2023-04-07T11:49:31.672Z,11.95
2023-04-07T11:52:03.197Z,11.60
2023-04-07T11:54:42.964Z,11.85
2023-04-07T11:57:12.973Z,12.25
2023-04-07T11:59:43.116Z,12.05
2023-04-07T12:02:14.497Z,11.57
2023-04-07T12:04:58.336Z,11.32
2023-04-07T12:07:28.398Z,10.75
2023-04-07T12:09:58.455Z,12.20
2023-04-07T12:12:29.235Z,10.32
2023-04-07T12:14:58.555Z,10.30
2023-04-07T12:17:29.064Z,9.77
2023-04-07T12:19:58.403Z,9.18
2023-04-07T12:22:27.199Z,9.88
2023-04-07T12:24:56.405Z,9.43
2023-04-07T12:27:39.687Z,10.13
2023-04-07T12:30:13.211Z,10.55
2023-04-07T12:32:43.822Z,10.07
2023-04-07T12:35:13.268Z,10.40
2023-04-07T12:37:42.048Z,10.45
2023-04-07T12:40:12.335Z,10.27
2023-04-07T12:42:41.496Z,10.68
2023-04-07T12:45:11.572Z,10.50
2023-04-07T12:47:40.701Z,10.90
2023-04-07T12:50:11.711Z,10.70
2023-04-07T12:52:41.124Z,8.90
2023-04-07T12:55:10.997Z,7.90
2023-04-07T12:57:39.823Z,7.60
2023-04-07T13:00:10.819Z,4.93
2023-04-07T13:02:39.814Z,3.70
2023-04-07T13:05:11.450Z,3.20
2023-04-07T13:07:40.325Z,3.15
2023-04-07T13:10:11.062Z,2.80
2023-04-07T13:12:41.403Z,2.80
2023-04-07T13:15:10.723Z,2.83
2023-04-07T13:17:39.613Z,2.78
2023-04-07T13:20:11.176Z,2.42
2023-04-07T13:22:49.207Z,2.55
2023-04-07T13:25:24.987Z,3.40
2023-04-07T13:27:53.789Z,3.38
2023-04-07T13:30:23.033Z,3.83
2023-04-07T13:32:52.184Z,3.08
2023-04-07T13:35:22.808Z,3.25
2023-04-07T13:37:51.657Z,2.70
2023-04-07T13:40:20.957Z,3.05
2023-04-07T13:42:49.692Z,2.40
2023-04-07T13:45:18.921Z,2.90
2023-04-07T13:47:47.681Z,2.78
2023-04-07T13:50:16.979Z,3.13
2023-04-07T13:52:47.260Z,2.83
2023-04-07T13:55:16.987Z,3.00
2023-04-07T13:57:45.872Z,3.40
2023-04-07T14:00:16.437Z,3.83
2023-04-07T14:02:47.751Z,2.67
2023-04-07T14:05:17.193Z,3.15
2023-04-07T14:07:48.125Z,2.90
2023-04-07T14:10:17.629Z,2.70
2023-04-07T14:12:46.674Z,2.70
2023-04-07T14:15:18.170Z,2.92
2023-04-07T14:17:47.295Z,2.88
2023-04-07T14:20:16.376Z,3.30
2023-04-07T14:22:46.615Z,3.03
2023-04-07T14:25:15.797Z,3.22
2023-04-07T14:27:44.592Z,3.63
2023-04-07T14:30:14.408Z,3.00
2023-04-07T14:32:43.321Z,3.20
2023-04-07T14:35:12.486Z,3.00
2023-04-07T14:37:41.413Z,2.70
2023-04-07T14:40:12.981Z,2.60
2023-04-07T14:42:41.975Z,2.95
2023-04-07T14:45:12.847Z,2.70
2023-04-07T14:47:41.710Z,3.30
2023-04-07T14:50:11.858Z,2.42
2023-04-07T14:52:40.841Z,2.67
2023-04-07T14:55:11.627Z,2.40
2023-04-07T14:57:40.469Z,2.90
2023-04-07T15:00:11.271Z,2.88
2023-04-07T15:02:40.542Z,3.28
2023-04-07T15:05:10.624Z,3.30
2023-04-07T15:07:39.554Z,2.97
2023-04-07T15:10:09.773Z,3.20
2023-04-07T15:12:39.874Z,3.35
2023-04-07T15:15:09.618Z,3.08
2023-04-07T15:17:43.807Z,2.95
2023-04-07T15:20:13.968Z,3.33
2023-04-07T15:22:42.782Z,3.25
2023-04-07T15:25:11.904Z,3.45
2023-04-07T15:27:42.048Z,3.47
2023-04-07T15:30:12.253Z,3.50
2023-04-07T15:32:41.314Z,3.53
2023-04-07T15:35:10.831Z,3.60
2023-04-07T15:37:39.685Z,3.22
2023-04-07T15:40:10.375Z,4.32
2023-04-07T15:42:41.691Z,3.65
2023-04-07T15:45:13.276Z,3.72
2023-04-07T15:47:42.225Z,4.22
2023-04-07T15:50:12.390Z,3.78
2023-04-07T15:52:41.204Z,3.38
2023-04-07T15:55:11.159Z,4.20
2023-04-07T15:57:40.046Z,3.70
2023-04-07T16:00:10.719Z,3.05
2023-04-07T16:02:40.964Z,3.30
2023-04-07T16:05:10.637Z,4.32
2023-04-07T16:07:39.445Z,3.83
2023-04-07T16:10:11.650Z,3.55
2023-04-07T16:12:40.722Z,3.63
2023-04-07T16:15:11.607Z,3.30
2023-04-07T16:17:44.524Z,3.28
2023-04-07T16:20:15.869Z,3.70
2023-04-07T16:22:47.982Z,3.58
2023-04-07T16:25:18.180Z,3.47
2023-04-07T16:27:47.271Z,3.67
2023-04-07T16:30:18.595Z,3.20
2023-04-07T16:32:49.210Z,3.40
2023-04-07T16:35:18.883Z,3.15
2023-04-07T16:37:49.512Z,3.33
2023-04-07T16:40:18.748Z,2.95
2023-04-07T16:42:48.711Z,2.75
2023-04-07T16:45:18.053Z,2.65
2023-04-07T16:47:48.274Z,3.05
2023-04-07T16:50:17.426Z,2.97
2023-04-07T16:52:46.967Z,3.20
2023-04-07T16:55:16.233Z,3.13
2023-04-07T16:57:44.990Z,3.15
2023-04-07T17:00:15.239Z,3.30
2023-04-07T17:02:44.378Z,3.35
2023-04-07T17:05:15.152Z,3.35
2023-04-07T17:07:44.025Z,3.15
2023-04-07T17:10:14.632Z,3.60
2023-04-07T17:12:43.678Z,3.38
2023-04-07T17:15:12.934Z,3.22
2023-04-07T17:17:41.883Z,3.22
2023-04-07T17:20:13.396Z,3.13
2023-04-07T17:22:44.195Z,2.72
2023-04-07T17:25:13.365Z,3.03
2023-04-07T17:27:42.153Z,3.20
2023-04-07T17:30:12.627Z,3.17
2023-04-07T17:32:41.625Z,3.20
2023-04-07T17:35:11.264Z,3.10
2023-04-07T17:37:40.183Z,3.28
2023-04-07T17:40:12.098Z,3.20
2023-04-07T17:42:41.309Z,3.47
2023-04-07T17:45:12.027Z,3.45
2023-04-07T17:47:40.926Z,3.33
2023-04-07T17:50:11.642Z,3.40
2023-04-07T17:52:40.503Z,3.42
2023-04-07T17:55:12.534Z,3.85
2023-04-07T17:57:42.773Z,4.03
2023-04-07T18:00:13.214Z,4.00
2023-04-07T18:02:42.335Z,4.07
2023-04-07T18:05:12.537Z,4.50
2023-04-07T18:07:41.350Z,4.80
2023-04-07T18:10:12.428Z,5.35
2023-04-07T18:12:41.885Z,5.80
2023-04-07T18:15:11.765Z,5.93
2023-04-07T18:17:41.234Z,5.00
2023-04-07T18:20:12.121Z,4.95
2023-04-07T18:22:40.985Z,5.13
2023-04-07T18:25:12.437Z,5.03
2023-04-07T18:27:41.560Z,5.10
2023-04-07T18:30:11.469Z,4.43
2023-04-07T18:32:40.398Z,4.75
2023-04-07T18:35:10.304Z,4.30
2023-04-07T18:37:39.130Z,4.72
2023-04-07T18:40:11.620Z,4.45
2023-04-07T18:42:40.445Z,5.05
2023-04-07T18:45:10.548Z,5.40
2023-04-07T18:47:39.445Z,5.18
2023-04-07T18:50:09.992Z,5.30
2023-04-07T18:52:38.820Z,4.88
2023-04-07T18:55:10.947Z,5.60
2023-04-07T18:57:41.426Z,4.93
2023-04-07T19:00:11.986Z,4.80
2023-04-07T19:02:44.631Z,4.78
2023-04-07T19:05:14.260Z,4.78
2023-04-07T19:07:43.066Z,4.47
2023-04-07T19:10:12.246Z,4.60
2023-04-07T19:12:42.344Z,5.07
2023-04-07T19:15:12.605Z,5.43
2023-04-07T19:17:41.458Z,4.97
2023-04-07T19:20:11.242Z,5.72
2023-04-07T19:22:40.149Z,5.10
2023-04-07T19:25:10.708Z,5.57
2023-04-07T19:27:41.068Z,5.07
2023-04-07T19:30:11.485Z,5.53
2023-04-07T19:32:40.401Z,5.30
2023-04-07T19:35:11.282Z,5.20
2023-04-07T19:37:41.085Z,5.50
2023-04-07T19:40:11.593Z,6.28
2023-04-07T19:42:42.784Z,6.55
2023-04-07T19:45:12.846Z,5.68
2023-04-07T19:47:43.517Z,6.85
2023-04-07T19:50:14.429Z,6.63
2023-04-07T19:52:45.277Z,6.47
2023-04-07T19:55:15.649Z,6.35
2023-04-07T19:57:45.787Z,6.63
2023-04-07T20:00:16.180Z,6.32
2023-04-07T20:02:51.236Z,6.32
2023-04-07T20:05:20.893Z,6.75
2023-04-07T20:07:49.709Z,5.80
2023-04-07T20:10:19.037Z,5.65
2023-04-07T20:12:49.143Z,5.88
2023-04-07T20:15:18.403Z,5.47
2023-04-07T20:17:48.048Z,5.25
2023-04-07T20:20:17.890Z,5.07
2023-04-07T20:22:46.741Z,5.03
2023-04-07T20:25:16.101Z,5.18
2023-04-07T20:27:49.056Z,5.57
2023-04-07T20:30:19.888Z,5.00
2023-04-07T20:32:48.772Z,5.20
2023-04-07T20:35:18.072Z,5.40
2023-04-07T20:37:46.863Z,4.85
2023-04-07T20:40:16.144Z,5.07
2023-04-07T20:42:46.157Z,4.50
2023-04-07T20:45:15.301Z,4.53
2023-04-07T20:47:45.563Z,4.60
2023-04-07T20:50:14.723Z,4.30
2023-04-07T20:52:43.862Z,4.22
2023-04-07T20:55:13.447Z,4.60
2023-04-07T20:57:43.616Z,4.88
2023-04-07T21:00:13.315Z,4.70
2023-04-07T21:02:42.840Z,4.47
2023-04-07T21:05:13.530Z,4.90
2023-04-07T21:07:42.378Z,5.60
2023-04-07T21:10:12.325Z,5.35
2023-04-07T21:12:41.734Z,5.13
2023-04-07T21:15:11.883Z,6.18
2023-04-07T21:17:40.920Z,6.88
2023-04-07T21:20:13.093Z,6.00
2023-04-07T21:22:41.909Z,6.93
2023-04-07T21:25:11.510Z,6.75
2023-04-07T21:27:40.608Z,6.55
2023-04-07T21:30:11.230Z,6.38
2023-04-07T21:32:40.065Z,5.65
2023-04-07T21:35:10.466Z,6.43
2023-04-07T21:37:41.016Z,6.38
2023-04-07T21:40:11.434Z,6.25
2023-04-07T21:42:40.915Z,6.00
2023-04-07T21:45:12.193Z,6.35
2023-04-07T21:47:41.045Z,6.63
2023-04-07T21:50:11.267Z,6.65
2023-04-07T21:52:42.696Z,5.85
2023-04-07T21:55:12.194Z,6.43
2023-04-07T21:57:40.994Z,6.25
2023-04-07T22:00:12.755Z,6.20
2023-04-07T22:02:45.589Z,6.20
2023-04-07T22:05:16.030Z,7.10
2023-04-07T22:07:46.873Z,6.97
2023-04-07T22:10:16.547Z,6.32
2023-04-07T22:12:45.686Z,6.30
2023-04-07T22:15:14.786Z,7.10
2023-04-07T22:17:43.612Z,6.35
2023-04-07T22:20:13.465Z,6.15
2023-04-07T22:22:43.169Z,6.20
2023-04-07T22:25:13.691Z,6.82
2023-04-07T22:27:42.490Z,6.05
2023-04-07T22:30:11.916Z,6.13
2023-04-07T22:32:41.524Z,7.28
2023-04-07T22:35:11.149Z,6.80
2023-04-07T22:37:40.072Z,7.47
2023-04-07T22:40:10.799Z,7.43
2023-04-07T22:42:41.185Z,8.45
2023-04-07T22:45:11.310Z,8.75
2023-04-07T22:47:40.858Z,9.52
2023-04-07T22:50:11.756Z,12.45
2023-04-07T22:52:40.596Z,11.50
2023-04-07T22:55:11.077Z,12.57
2023-04-07T22:57:41.239Z,11.52
2023-04-07T23:00:11.635Z,11.45
2023-04-07T23:02:40.593Z,11.85
2023-04-07T23:05:11.240Z,11.75
2023-04-07T23:07:40.429Z,13.15
2023-04-07T23:10:10.518Z,13.07
2023-04-07T23:12:40.740Z,13.13
2023-04-07T23:15:11.000Z,12.93
2023-04-07T23:17:40.047Z,14.55
2023-04-07T23:20:10.977Z,14.30
2023-04-07T23:22:39.804Z,15.80
2023-04-07T23:25:10.381Z,14.55
2023-04-07T23:27:40.658Z,14.25
2023-04-07T23:30:11.279Z,15.23
2023-04-07T23:32:40.126Z,14.82
2023-04-07T23:35:10.614Z,15.70
2023-04-07T23:37:39.585Z,14.18
2023-04-07T23:40:10.978Z,14.65
2023-04-07T23:42:41.115Z,14.43
2023-04-07T23:45:11.255Z,13.48
2023-04-07T23:47:40.131Z,13.30
2023-04-07T23:50:10.394Z,14.88
2023-04-07T23:52:39.184Z,15.35
2023-04-07T23:55:09.499Z,14.90
2023-04-07T23:57:38.334Z,15.07
